Time;durP1;ratioP1;P1;durP2;ratioP2;P2;SDS_P1;SDS_P2;PMS_P1;PMS_P2;Temp;Humidity;BMP_temperature;BMP_pressure;BME280_temperature;BME280_humidity;BME280_pressure;Samples;Min_cycle;Max_cycle;Signal;HPM_P1;HPM_P2
2021/10/03 00:01:17;;;;;;;2.20;1.58;;;;;;;;;;10240883;28;20663;-61
2021/10/03 00:06:15;;;;;;;3.83;2.10;;;;;;;;;;10233694;28;20041;-62
2021/10/03 00:11:13;;;;;;;4.25;2.10;;;;;;;;;;10234793;28;20132;-64
2021/10/03 00:16:11;;;;;;;2.67;1.77;;;;;;;;;;10245053;28;20117;-62
2021/10/03 00:21:10;;;;;;;3.73;1.70;;;;;;;;;;10236570;28;20045;-63
2021/10/03 00:26:07;;;;;;;3.20;1.63;;;;;;;;;;10230990;28;20085;-63
2021/10/03 00:31:05;;;;;;;3.33;1.93;;;;;;;;;;10239528;28;20571;-64
2021/10/03 00:36:03;;;;;;;2.10;1.60;;;;;;;;;;10240830;28;20049;-63
2021/10/03 00:41:00;;;;;;;3.70;2.60;;;;;;;;;;10232662;28;20496;-63
2021/10/03 00:45:57;;;;;;;3.67;1.97;;;;;;;;;;10238088;28;20519;-63
2021/10/03 00:50:55;;;;;;;7.07;2.47;;;;;;;;;;10232682;28;20410;-62
2021/10/03 00:55:52;;;;;;;2.67;1.30;;;;;;;;;;10225235;28;20046;-61
2021/10/03 01:00:50;;;;;;;4.27;1.80;;;;;;;;;;10228030;28;20045;-62
2021/10/03 01:05:48;;;;;;;2.70;1.47;;;;;;;;;;10252080;28;20029;-62
2021/10/03 01:10:45;;;;;;;2.93;1.97;;;;;;;;;;10273370;23;20312;-62
2021/10/03 01:15:44;;;;;;;3.50;1.83;;;;;;;;;;10236064;28;20042;-63
2021/10/03 01:20:41;;;;;;;1.80;1.60;;;;;;;;;;10248983;28;20034;-64
2021/10/03 01:25:43;;;;;;;1.57;1.47;;;;;;;;;;10240613;28;20493;-63
2021/10/03 01:30:42;;;;;;;3.67;1.80;;;;;;;;;;10246077;28;20042;-63
2021/10/03 01:35:40;;;;;;;2.70;1.65;;;;;;;;;;10247594;28;20042;-63
2021/10/03 01:40:37;;;;;;;2.47;1.73;;;;;;;;;;10242174;28;20038;-62
2021/10/03 01:45:35;;;;;;;2.60;1.60;;;;;;;;;;10239541;28;20038;-62
2021/10/03 01:50:34;;;;;;;2.90;1.63;;;;;;;;;;10251243;28;20290;-61
2021/10/03 01:55:32;;;;;;;2.30;1.20;;;;;;;;;;10247739;28;20042;-62
2021/10/03 02:00:29;;;;;;;4.60;1.70;;;;;;;;;;10245398;28;20506;-62
2021/10/03 02:05:27;;;;;;;1.73;1.17;;;;;;;;;;10246041;28;20061;-62
2021/10/03 02:10:26;;;;;;;4.63;2.30;;;;;;;;;;10228724;28;20042;-62
2021/10/03 02:15:23;;;;;;;3.80;2.10;;;;;;;;;;10263334;28;20045;-63
2021/10/03 02:20:21;;;;;;;3.00;2.00;;;;;;;;;;10248653;28;20037;-62
2021/10/03 02:25:18;;;;;;;4.38;2.28;;;;;;;;;;10245122;28;20501;-62
2021/10/03 02:30:16;;;;;;;2.60;1.57;;;;;;;;;;10250475;28;20490;-63
2021/10/03 02:35:14;;;;;;;2.03;1.80;;;;;;;;;;10243587;28;20512;-63
2021/10/03 02:40:14;;;;;;;2.10;1.90;;;;;;;;;;10250447;28;20033;-63
2021/10/03 02:45:11;;;;;;;1.45;1.30;;;;;;;;;;10247434;28;20522;-62
2021/10/03 02:50:09;;;;;;;2.33;1.57;;;;;;;;;;10253562;28;20034;-62
2021/10/03 02:55:07;;;;;;;2.90;1.83;;;;;;;;;;10264119;28;20034;-62
2021/10/03 03:00:05;;;;;;;3.72;1.95;;;;;;;;;;10242762;28;20475;-63
2021/10/03 03:05:05;;;;;;;2.85;1.80;;;;;;;;;;10245369;28;20568;-61
2021/10/03 03:10:04;;;;;;;2.17;1.63;;;;;;;;;;10240564;28;20037;-62
2021/10/03 03:15:05;;;;;;;3.30;2.05;;;;;;;;;;10239437;28;20049;-64
2021/10/03 03:20:04;;;;;;;1.77;1.45;;;;;;;;;;10243902;28;20045;-63
2021/10/03 03:25:01;;;;;;;;;;;;;;;;;;10237794;28;20496;-62
2021/10/03 03:29:58;;;;;;;2.83;1.50;;;;;;;;;;10220185;28;20269;-62
2021/10/03 03:34:56;;;;;;;3.50;2.10;;;;;;;;;;10248707;28;20033;-61
2021/10/03 03:39:53;;;;;;;2.77;1.80;;;;;;;;;;10251772;28;20029;-63
2021/10/03 03:44:51;;;;;;;2.13;1.87;;;;;;;;;;10248961;28;20038;-62
2021/10/03 03:49:51;;;;;;;2.80;1.70;;;;;;;;;;10253647;28;20548;-62
2021/10/03 03:54:48;;;;;;;2.47;1.65;;;;;;;;;;10246888;28;20073;-61
2021/10/03 03:59:46;;;;;;;1.83;1.40;;;;;;;;;;10240629;28;20049;-62
2021/10/03 04:04:44;;;;;;;3.23;2.00;;;;;;;;;;10243360;28;20026;-63
2021/10/03 04:09:42;;;;;;;1.83;1.65;;;;;;;;;;10239493;28;20038;-62
2021/10/03 04:14:40;;;;;;;2.33;1.63;;;;;;;;;;10208186;28;20120;-65
2021/10/03 04:19:37;;;;;;;4.77;2.07;;;;;;;;;;10228145;28;20232;-63
2021/10/03 04:24:35;;;;;;;5.10;2.77;;;;;;;;;;10262337;23;20534;-64
2021/10/03 04:29:33;;;;;;;3.93;1.83;;;;;;;;;;10210880;28;20071;-65
2021/10/03 04:34:30;;;;;;;3.83;2.40;;;;;;;;;;10196874;28;20045;-62
2021/10/03 04:39:31;;;;;;;4.63;2.53;;;;;;;;;;10215652;28;20041;-62
2021/10/03 04:44:30;;;;;;;3.80;2.63;;;;;;;;;;10227313;28;20042;-61
2021/10/03 04:49:28;;;;;;;4.93;2.57;;;;;;;;;;10220735;28;20038;-61
2021/10/03 04:54:26;;;;;;;4.40;2.37;;;;;;;;;;10223073;23;20085;-62
2021/10/03 04:59:23;;;;;;;3.58;1.63;;;;;;;;;;10198598;28;20489;-60
2021/10/03 05:04:20;;;;;;;4.63;2.23;;;;;;;;;;10209125;28;20030;-62
2021/10/03 05:09:18;;;;;;;2.17;1.47;;;;;;;;;;10203462;28;20042;-62
2021/10/03 05:14:16;;;;;;;3.27;1.90;;;;;;;;;;10186247;28;20105;-62
2021/10/03 05:19:13;;;;;;;3.00;1.65;;;;;;;;;;10203875;28;20035;-63
2021/10/03 05:24:10;;;;;;;2.73;1.53;;;;;;;;;;10248779;23;20081;-63
2021/10/03 05:29:08;;;;;;;1.57;1.47;;;;;;;;;;10229116;28;20041;-63
2021/10/03 05:34:05;;;;;;;5.43;2.60;;;;;;;;;;10215421;28;20046;-61
2021/10/03 05:39:03;;;;;;;1.80;1.00;;;;;;;;;;10217938;28;20108;-62
2021/10/03 05:44:04;;;;;;;3.40;1.80;;;;;;;;;;10201118;28;20046;-64
2021/10/03 05:49:01;;;;;;;1.80;1.35;;;;;;;;;;10200829;28;20034;-63
2021/10/03 05:53:59;;;;;;;2.63;2.10;;;;;;;;;;10208331;23;20046;-65
2021/10/03 05:58:56;;;;;;;1.93;1.40;;;;;;;;;;10179669;28;20092;-66
2021/10/03 06:03:55;;;;;;;2.90;1.93;;;;;;;;;;10182965;28;20061;-64
2021/10/03 06:08:52;;;;;;;3.13;1.40;;;;;;;;;;10185507;28;20039;-65
2021/10/03 06:13:50;;;;;;;3.03;1.67;;;;;;;;;;10197514;28;20046;-64
2021/10/03 06:18:47;;;;;;;2.27;1.50;;;;;;;;;;10194852;28;20081;-64
2021/10/03 06:23:45;;;;;;;2.20;1.80;;;;;;;;;;10194576;28;20081;-64
2021/10/03 06:28:42;;;;;;;2.63;1.65;;;;;;;;;;10176611;28;20042;-64
2021/10/03 06:33:40;;;;;;;4.50;1.93;;;;;;;;;;10185539;28;20061;-63
2021/10/03 06:38:37;;;;;;;2.27;1.57;;;;;;;;;;10196118;28;20042;-64
2021/10/03 06:43:38;;;;;;;2.93;1.67;;;;;;;;;;10195164;28;20405;-63
2021/10/03 06:48:36;;;;;;;4.00;1.73;;;;;;;;;;10196302;28;20030;-65
2021/10/03 06:53:35;;;;;;;2.95;1.83;;;;;;;;;;10192779;28;20046;-65
2021/10/03 06:58:33;;;;;;;3.95;1.92;;;;;;;;;;10187218;28;20038;-64
2021/10/03 07:03:30;;;;;;;2.70;2.07;;;;;;;;;;10211343;28;20038;-66
2021/10/03 07:08:28;;;;;;;2.92;2.17;;;;;;;;;;10205778;28;21154;-63
2021/10/03 07:13:25;;;;;;;4.07;1.80;;;;;;;;;;10199886;28;20837;-65
2021/10/03 07:18:23;;;;;;;5.57;2.17;;;;;;;;;;10203489;28;20034;-65
2021/10/03 07:23:20;;;;;;;6.70;2.43;;;;;;;;;;10199395;28;20164;-65
2021/10/03 07:28:18;;;;;;;4.60;2.60;;;;;;;;;;10194132;28;20030;-65
2021/10/03 07:33:18;;;;;;;4.30;1.92;;;;;;;;;;10195003;28;20253;-64
2021/10/03 07:38:16;;;;;;;4.25;2.38;;;;;;;;;;10195366;28;20066;-65
2021/10/03 07:43:13;;;;;;;2.87;1.83;;;;;;;;;;10197980;28;20165;-65
2021/10/03 07:48:10;;;;;;;6.43;2.10;;;;;;;;;;10196011;28;20034;-65
2021/10/03 07:53:08;;;;;;;3.10;1.97;;;;;;;;;;10189743;28;20054;-64
2021/10/03 07:58:07;;;;;;;6.43;2.43;;;;;;;;;;10191116;28;20054;-62
2021/10/03 08:03:04;;;;;;;4.70;1.67;;;;;;;;;;10201375;28;20127;-65
2021/10/03 08:08:04;;;;;;;3.70;2.40;;;;;;;;;;10196751;28;20177;-65
2021/10/03 08:13:02;;;;;;;5.63;3.50;;;;;;;;;;10189035;28;20045;-65
2021/10/03 08:17:59;;;;;;;3.23;2.20;;;;;;;;;;10193829;28;20044;-65
2021/10/03 08:22:57;;;;;;;6.07;3.67;;;;;;;;;;10203571;28;20047;-64
2021/10/03 08:27:54;;;;;;;4.82;2.65;;;;;;;;;;10200341;28;21669;-66
2021/10/03 08:32:52;;;;;;;5.90;3.17;;;;;;;;;;10197241;28;20043;-65
2021/10/03 08:37:52;;;;;;;7.70;3.17;;;;;;;;;;10208937;28;20045;-66
2021/10/03 08:42:49;;;;;;;9.15;3.50;;;;;;;;;;10193267;28;20039;-65
2021/10/03 08:47:47;;;;;;;5.40;3.03;;;;;;;;;;10190834;28;20038;-64
2021/10/03 08:52:45;;;;;;;10.60;5.07;;;;;;;;;;10189067;28;20042;-65
2021/10/03 08:57:43;;;;;;;8.65;4.57;;;;;;;;;;10185350;28;20039;-67
2021/10/03 09:03:00;;;;;;;5.37;2.90;;;;;;;;;;10190949;28;20535;-66
2021/10/03 09:07:59;;;;;;;5.53;3.80;;;;;;;;;;10203282;28;20035;-66
2021/10/03 09:12:57;;;;;;;6.47;4.05;;;;;;;;;;10194110;28;20030;-65
2021/10/03 09:17:55;;;;;;;6.90;3.45;;;;;;;;;;10197595;28;20582;-66
2021/10/03 09:22:59;;;;;;;6.55;3.58;;;;;;;;;;10193070;28;20130;-67
2021/10/03 09:27:56;;;;;;;4.30;2.70;;;;;;;;;;10198199;28;20034;-67
2021/10/03 09:32:56;;;;;;;7.03;3.40;;;;;;;;;;10186361;28;20042;-66
2021/10/03 09:37:53;;;;;;;6.85;3.80;;;;;;;;;;10201999;28;20130;-66
2021/10/03 09:42:59;;;;;;;7.57;3.57;;;;;;;;;;10202372;28;20137;-66
2021/10/03 09:47:59;;;;;;;7.45;3.65;;;;;;;;;;10208633;28;20041;-65
2021/10/03 09:52:57;;;;;;;5.90;3.35;;;;;;;;;;10202846;28;20145;-64
2021/10/03 09:57:56;;;;;;;5.10;3.03;;;;;;;;;;10201936;28;20600;-65
2021/10/03 10:02:53;;;;;;;5.68;3.38;;;;;;;;;;10208559;28;20066;-65
2021/10/03 10:07:52;;;;;;;6.78;3.78;;;;;;;;;;10199616;28;20061;-66
2021/10/03 10:12:55;;;;;;;9.13;3.50;;;;;;;;;;10203688;28;20047;-65
2021/10/03 10:17:53;;;;;;;8.55;4.35;;;;;;;;;;10193137;28;20062;-66
2021/10/03 10:22:54;;;;;;;6.37;4.20;;;;;;;;;;10212791;28;20128;-65
2021/10/03 10:27:57;;;;;;;6.85;4.95;;;;;;;;;;10198553;28;20106;-65
2021/10/03 10:32:55;;;;;;;7.50;3.85;;;;;;;;;;10203297;28;20042;-66
2021/10/03 10:37:55;;;;;;;7.97;4.10;;;;;;;;;;10192885;28;20594;-64
2021/10/03 10:42:53;;;;;;;5.35;3.42;;;;;;;;;;10172823;28;20109;-65
2021/10/03 10:48:08;;;;;;;7.27;3.33;;;;;;;;;;10199416;28;20088;-66
2021/10/03 10:53:20;;;;;;;8.68;3.80;;;;;;;;;;10197363;28;20057;-65
2021/10/03 10:58:18;;;;;;;5.45;4.03;;;;;;;;;;10189807;28;20097;-65
2021/10/03 11:03:15;;;;;;;;;;;;;;;;;;10198614;28;20782;-65
2021/10/03 11:08:20;;;;;;;6.77;3.30;;;;;;;;;;10207481;28;19932;-65
2021/10/03 11:13:38;;;;;;;7.43;3.45;;;;;;;;;;10199156;28;20551;-65
2021/10/03 11:18:47;;;;;;;8.10;4.57;;;;;;;;;;10197592;28;20420;-65
2021/10/03 11:23:44;;;;;;;5.68;3.67;;;;;;;;;;10210965;28;20436;-66
2021/10/03 11:28:56;;;;;;;7.78;4.90;;;;;;;;;;10209198;28;20034;-65
2021/10/03 11:33:53;;;;;;;4.43;3.58;;;;;;;;;;10195599;28;20562;-63
2021/10/03 11:38:50;;;;;;;4.80;3.43;;;;;;;;;;10195805;28;20128;-64
2021/10/03 11:43:48;;;;;;;8.10;3.90;;;;;;;;;;10206745;28;20063;-64
2021/10/03 11:48:53;;;;;;;5.07;3.20;;;;;;;;;;10198889;28;20030;-65
2021/10/03 11:53:52;;;;;;;5.60;3.80;;;;;;;;;;10201238;28;20070;-65
2021/10/03 11:58:50;;;;;;;8.52;4.25;;;;;;;;;;10202757;28;20096;-64
2021/10/03 12:03:51;;;;;;;8.25;4.03;;;;;;;;;;10201275;28;20092;-65
2021/10/03 12:08:50;;;;;;;7.03;4.38;;;;;;;;;;10181032;28;20054;-65
2021/10/03 12:13:58;;;;;;;4.30;3.15;;;;;;;;;;10195092;28;20030;-65
2021/10/03 12:18:59;;;;;;;7.82;3.92;;;;;;;;;;10190637;28;20492;-65
2021/10/03 12:24:01;;;;;;;7.90;3.83;;;;;;;;;;10189858;28;20026;-65
2021/10/03 12:28:58;;;;;;;4.55;3.35;;;;;;;;;;10174649;28;20046;-65
2021/10/03 12:33:56;;;;;;;6.80;3.67;;;;;;;;;;10188518;28;20097;-66
2021/10/03 12:38:53;;;;;;;513.72;220.00;;;;;;;;;;10185750;28;20161;-65
2021/10/03 12:43:51;;;;;;;65.20;33.63;;;;;;;;;;10189858;28;20062;-65
2021/10/03 12:48:49;;;;;;;51.25;29.80;;;;;;;;;;10190649;28;20046;-64
2021/10/03 12:53:46;;;;;;;163.83;65.17;;;;;;;;;;10191633;28;20039;-64
2021/10/03 12:58:44;;;;;;;39.47;23.53;;;;;;;;;;10192283;28;20411;-65
2021/10/03 13:03:42;;;;;;;35.90;20.47;;;;;;;;;;10199004;28;20035;-64
2021/10/03 13:08:39;;;;;;;19.60;13.13;;;;;;;;;;10199698;28;20330;-65
2021/10/03 13:13:36;;;;;;;15.17;8.47;;;;;;;;;;10201617;28;20030;-64
2021/10/03 13:18:34;;;;;;;12.43;7.73;;;;;;;;;;10194557;28;20332;-64
2021/10/03 13:23:32;;;;;;;12.17;5.67;;;;;;;;;;10192764;28;20045;-65
2021/10/03 13:28:30;;;;;;;9.40;3.67;;;;;;;;;;10197889;28;20556;-66
2021/10/03 13:33:28;;;;;;;4.90;3.35;;;;;;;;;;10195654;28;20392;-65
2021/10/03 13:38:26;;;;;;;;;;;;;;;;;;10176823;28;20047;-65
2021/10/03 13:43:23;;;;;;;4.03;2.27;;;;;;;;;;10172141;28;20312;-65
2021/10/03 13:48:21;;;;;;;4.13;2.90;;;;;;;;;;10191646;28;20042;-63
2021/10/03 13:53:18;;;;;;;6.63;3.23;;;;;;;;;;10187713;28;20078;-64
2021/10/03 13:58:16;;;;;;;3.37;2.17;;;;;;;;;;10190810;28;20094;-63
2021/10/03 14:03:13;;;;;;;4.37;2.20;;;;;;;;;;10194403;28;20045;-64
2021/10/03 14:08:10;;;;;;;4.30;2.30;;;;;;;;;;10191434;28;20046;-65
2021/10/03 14:13:09;;;;;;;8.37;2.07;;;;;;;;;;10173742;28;20042;-64
2021/10/03 14:18:06;;;;;;;2.20;2.00;;;;;;;;;;10181279;28;20104;-64
2021/10/03 14:23:05;;;;;;;3.92;2.55;;;;;;;;;;10187068;28;20092;-65
2021/10/03 14:28:02;;;;;;;4.55;2.10;;;;;;;;;;10208557;28;20030;-64
2021/10/03 14:33:00;;;;;;;3.47;3.00;;;;;;;;;;10193012;28;20365;-64
2021/10/03 14:37:57;;;;;;;4.80;2.30;;;;;;;;;;10199985;28;20034;-66
2021/10/03 14:42:54;;;;;;;4.90;2.17;;;;;;;;;;10200830;28;20042;-64
2021/10/03 14:47:52;;;;;;;6.07;3.27;;;;;;;;;;10200753;28;20030;-64
2021/10/03 14:52:50;;;;;;;2.57;2.37;;;;;;;;;;10194672;28;20115;-66
2021/10/03 14:57:48;;;;;;;3.67;2.00;;;;;;;;;;10204679;28;20461;-65
2021/10/03 15:02:45;;;;;;;4.60;3.20;;;;;;;;;;10198672;28;20050;-64
2021/10/03 15:07:42;;;;;;;5.10;2.63;;;;;;;;;;10199798;28;20046;-65
2021/10/03 15:12:41;;;;;;;3.37;1.90;;;;;;;;;;10208317;28;20547;-64
2021/10/03 15:17:38;;;;;;;;;;;;;;;;;;10201765;28;20046;-65
2021/10/03 15:22:36;;;;;;;8.80;3.05;;;;;;;;;;10190341;28;19918;-66
2021/10/03 15:27:34;;;;;;;8.80;3.35;;;;;;;;;;10193730;28;20460;-63
2021/10/03 15:32:31;;;;;;;9.33;3.93;;;;;;;;;;10175634;28;20122;-64
2021/10/03 15:37:29;;;;;;;9.73;4.70;;;;;;;;;;10197049;28;20038;-66
2021/10/03 15:42:26;;;;;;;7.25;3.63;;;;;;;;;;10188209;28;20061;-65
2021/10/03 15:47:23;;;;;;;1.80;1.37;;;;;;;;;;10196963;28;20034;-66
2021/10/03 15:52:21;;;;;;;4.37;2.67;;;;;;;;;;10193852;28;20605;-65
2021/10/03 15:57:18;;;;;;;3.80;2.70;;;;;;;;;;10191891;28;20299;-64
2021/10/03 16:02:16;;;;;;;4.97;1.83;;;;;;;;;;10202787;28;20077;-65
2021/10/03 16:07:14;;;;;;;2.97;2.30;;;;;;;;;;10191354;28;20124;-65
2021/10/03 16:12:12;;;;;;;6.73;3.03;;;;;;;;;;10208809;28;20045;-65
2021/10/03 16:17:09;;;;;;;3.70;2.45;;;;;;;;;;10203994;28;20089;-65
2021/10/03 16:22:07;;;;;;;4.77;2.50;;;;;;;;;;10193160;28;20041;-66
2021/10/03 16:27:04;;;;;;;6.80;2.10;;;;;;;;;;10191938;28;20034;-66
2021/10/03 16:32:02;;;;;;;11.27;2.67;;;;;;;;;;10190407;28;20501;-65
2021/10/03 16:36:59;;;;;;;8.27;2.77;;;;;;;;;;10193665;28;20516;-67
2021/10/03 16:41:57;;;;;;;6.73;2.10;;;;;;;;;;10190729;28;20035;-65
2021/10/03 16:46:58;;;;;;;2.80;1.80;;;;;;;;;;10184870;28;20041;-65
2021/10/03 16:51:55;;;;;;;4.07;1.80;;;;;;;;;;10191730;28;20050;-65
2021/10/03 16:56:53;;;;;;;5.87;1.27;;;;;;;;;;10192157;28;20127;-65
2021/10/03 17:01:51;;;;;;;3.73;0.80;;;;;;;;;;10199852;28;20046;-65
2021/10/03 17:06:48;;;;;;;4.72;0.73;;;;;;;;;;10213862;28;20504;-65
2021/10/03 17:11:45;;;;;;;4.70;1.17;;;;;;;;;;10201804;28;20077;-66
2021/10/03 17:16:45;;;;;;;0.40;0.40;;;;;;;;;;10199582;28;20046;-65
2021/10/03 17:21:43;;;;;;;2.60;0.68;;;;;;;;;;10203399;28;20324;-66
2021/10/03 17:26:40;;;;;;;5.63;0.67;;;;;;;;;;10205011;28;20035;-66
2021/10/03 17:31:38;;;;;;;3.77;0.43;;;;;;;;;;10203205;28;20298;-66
2021/10/03 17:36:35;;;;;;;0.40;0.37;;;;;;;;;;10172636;28;20124;-65
2021/10/03 17:41:33;;;;;;;0.20;0.20;;;;;;;;;;10189850;28;20035;-65
2021/10/03 17:46:30;;;;;;;1.43;0.30;;;;;;;;;;10191240;28;20038;-65
2021/10/03 17:51:28;;;;;;;2.03;0.30;;;;;;;;;;10196479;28;20038;-65
2021/10/03 17:56:25;;;;;;;1.30;0.43;;;;;;;;;;10190283;28;20566;-65
2021/10/03 18:01:22;;;;;;;0.13;0.13;;;;;;;;;;10194959;28;20460;-66
2021/10/03 18:06:20;;;;;;;3.00;0.70;;;;;;;;;;10191663;28;20034;-65
2021/10/03 18:11:17;;;;;;;1.80;0.30;;;;;;;;;;10193796;28;20041;-65
2021/10/03 18:16:15;;;;;;;1.43;0.40;;;;;;;;;;10189555;28;20413;-65
2021/10/03 18:21:13;;;;;;;1.10;0.50;;;;;;;;;;10201388;28;20598;-65
2021/10/03 18:26:10;;;;;;;0.10;0.10;;;;;;;;;;10193426;28;20042;-65
2021/10/03 18:31:07;;;;;;;0.70;0.40;;;;;;;;;;10184994;28;20503;-66
2021/10/03 18:36:06;;;;;;;0.17;0.17;;;;;;;;;;10199558;28;20061;-65
2021/10/03 18:41:03;;;;;;;0.65;0.20;;;;;;;;;;10188643;28;20341;-65
2021/10/03 18:46:01;;;;;;;0.20;0.20;;;;;;;;;;10185863;28;20042;-65
2021/10/03 18:50:58;;;;;;;0.63;0.30;;;;;;;;;;10191599;28;20038;-67
2021/10/03 18:55:56;;;;;;;0.10;0.10;;;;;;;;;;10187537;28;20038;-66
2021/10/03 19:00:54;;;;;;;1.20;0.20;;;;;;;;;;10182567;28;20034;-65
2021/10/03 19:05:52;;;;;;;;;;;;;;;;;;10185943;28;20428;-66
2021/10/03 19:10:49;;;;;;;0.60;0.20;;;;;;;;;;10191265;28;19921;-66
2021/10/03 19:15:47;;;;;;;3.53;0.90;;;;;;;;;;10189023;28;20296;-64
2021/10/03 19:20:44;;;;;;;2.33;1.00;;;;;;;;;;10194993;28;20047;-64
2021/10/03 19:25:42;;;;;;;1.03;0.90;;;;;;;;;;10193471;28;20415;-65
2021/10/03 19:30:39;;;;;;;3.90;0.80;;;;;;;;;;10189237;28;20039;-65
2021/10/03 19:35:37;;;;;;;2.80;0.80;;;;;;;;;;10198518;28;20349;-64
2021/10/03 19:40:34;;;;;;;1.23;0.80;;;;;;;;;;10194465;28;20536;-66
2021/10/03 19:45:31;;;;;;;0.40;0.40;;;;;;;;;;10187632;28;20444;-66
2021/10/03 19:50:29;;;;;;;0.60;0.60;;;;;;;;;;10198482;28;20029;-65
2021/10/03 19:55:26;;;;;;;2.40;0.50;;;;;;;;;;10201637;28;20023;-65
2021/10/03 20:00:24;;;;;;;0.37;0.37;;;;;;;;;;10210958;28;20024;-65
2021/10/03 20:05:21;;;;;;;1.20;0.67;;;;;;;;;;10200692;28;20039;-64
2021/10/03 20:10:19;;;;;;;1.00;0.40;;;;;;;;;;10204692;28;20030;-64
2021/10/03 20:15:17;;;;;;;1.30;0.20;;;;;;;;;;10187801;28;20399;-65
2021/10/03 20:20:14;;;;;;;1.47;0.60;;;;;;;;;;10199120;28;20893;-65
2021/10/03 20:25:13;;;;;;;0.57;0.30;;;;;;;;;;10193302;28;20038;-65
2021/10/03 20:30:10;;;;;;;2.88;0.40;;;;;;;;;;10196719;28;20547;-65
2021/10/03 20:35:09;;;;;;;0.53;0.40;;;;;;;;;;10194833;28;20195;-64
2021/10/03 20:40:07;;;;;;;1.40;0.70;;;;;;;;;;10194319;28;20038;-64
2021/10/03 20:45:05;;;;;;;3.20;0.40;;;;;;;;;;10202172;28;20488;-64
2021/10/03 20:50:04;;;;;;;0.47;0.40;;;;;;;;;;10206339;28;20093;-65
2021/10/03 20:55:02;;;;;;;2.42;0.82;;;;;;;;;;10184385;28;20567;-64
2021/10/03 20:59:59;;;;;;;2.57;0.73;;;;;;;;;;10198652;28;20038;-66
2021/10/03 21:04:57;;;;;;;0.93;0.63;;;;;;;;;;10208671;28;20037;-64
2021/10/03 21:09:54;;;;;;;0.83;0.43;;;;;;;;;;10200491;28;20112;-64
2021/10/03 21:14:51;;;;;;;0.63;0.40;;;;;;;;;;10181946;28;20560;-64
2021/10/03 21:19:49;;;;;;;0.73;0.50;;;;;;;;;;10207081;28;20049;-64
2021/10/03 21:24:46;;;;;;;0.93;0.63;;;;;;;;;;10209875;28;20038;-64
2021/10/03 21:29:44;;;;;;;1.53;0.60;;;;;;;;;;10209843;28;20407;-65
2021/10/03 21:34:41;;;;;;;4.13;0.60;;;;;;;;;;10213290;28;20049;-64
2021/10/03 21:39:38;;;;;;;0.60;0.53;;;;;;;;;;10192484;28;20043;-64
2021/10/03 21:44:36;;;;;;;2.20;0.80;;;;;;;;;;10192044;28;20045;-63
2021/10/03 21:49:33;;;;;;;1.90;0.47;;;;;;;;;;10207999;28;20046;-64
2021/10/03 21:54:31;;;;;;;1.97;0.63;;;;;;;;;;10198143;28;20538;-63
2021/10/03 21:59:28;;;;;;;1.37;0.90;;;;;;;;;;10194390;28;20040;-64
2021/10/03 22:04:25;;;;;;;0.50;0.50;;;;;;;;;;10186036;28;20086;-63
2021/10/03 22:09:23;;;;;;;3.00;0.90;;;;;;;;;;10209893;28;20388;-62
2021/10/03 22:14:20;;;;;;;0.67;0.60;;;;;;;;;;10206209;28;20031;-65
2021/10/03 22:19:18;;;;;;;1.90;0.53;;;;;;;;;;10209884;28;20141;-64
2021/10/03 22:24:15;;;;;;;1.07;0.97;;;;;;;;;;10207249;28;20046;-64
2021/10/03 22:29:13;;;;;;;2.03;0.70;;;;;;;;;;10210589;28;20035;-62
2021/10/03 22:34:10;;;;;;;0.30;0.30;;;;;;;;;;10194501;28;20038;-64
2021/10/03 22:39:08;;;;;;;1.20;0.63;;;;;;;;;;10190003;28;20039;-63
2021/10/03 22:44:05;;;;;;;1.27;0.60;;;;;;;;;;10190823;28;20069;-63
2021/10/03 22:49:02;;;;;;;1.03;0.97;;;;;;;;;;10195771;28;20053;-64
2021/10/03 22:54:00;;;;;;;3.13;1.33;;;;;;;;;;10206871;28;20042;-63
2021/10/03 22:58:58;;;;;;;2.17;1.17;;;;;;;;;;10201653;28;20516;-62
2021/10/03 23:03:55;;;;;;;2.13;0.93;;;;;;;;;;10203193;28;20061;-63
2021/10/03 23:08:52;;;;;;;0.60;0.60;;;;;;;;;;10204235;28;20042;-63
2021/10/03 23:13:50;;;;;;;4.37;1.90;;;;;;;;;;10202931;28;20043;-64
2021/10/03 23:18:47;;;;;;;2.77;1.50;;;;;;;;;;10198720;28;20046;-63
2021/10/03 23:23:45;;;;;;;5.43;2.67;;;;;;;;;;10206569;28;20061;-63
2021/10/03 23:28:43;;;;;;;2.30;1.67;;;;;;;;;;10209418;28;20146;-63
2021/10/03 23:33:40;;;;;;;;;;;;;;;;;;10201289;28;20035;-63
2021/10/03 23:38:38;;;;;;;2.33;1.45;;;;;;;;;;10203344;28;20388;-63
2021/10/03 23:43:37;;;;;;;2.90;2.60;;;;;;;;;;10196420;28;20034;-62
2021/10/03 23:48:34;;;;;;;1.67;1.27;;;;;;;;;;10207113;28;20118;-63
2021/10/03 23:53:31;;;;;;;2.93;1.63;;;;;;;;;;10199549;28;20082;-62
2021/10/03 23:58:29;;;;;;;1.83;1.43;;;;;;;;;;10182498;28;20038;-62
